sensor_id;sensor_type;location;lat;lon;timestamp;temperature;humidity
27779;DHT22;30234;48.090;11.464;2023-04-29T00:04:00;9.70;99.90
27779;DHT22;30234;48.090;11.464;2023-04-29T00:08:01;9.80;99.90
27779;DHT22;30234;48.090;11.464;2023-04-29T00:12:03;9.80;99.90
27779;DHT22;30234;48.090;11.464;2023-04-29T00:16:04;9.80;99.90
27779;DHT22;30234;48.090;11.464;2023-04-29T00:20:06;9.80;99.90
27779;DHT22;30234;48.090;11.464;2023-04-29T00:24:07;9.80;99.90
27779;DHT22;30234;48.090;11.464;2023-04-29T00:28:08;9.80;99.90
27779;DHT22;30234;48.090;11.464;2023-04-29T00:32:09;9.80;99.90
27779;DHT22;30234;48.090;11.464;2023-04-29T00:36:10;9.90;99.90
27779;DHT22;30234;48.090;11.464;2023-04-29T00:40:11;10.00;99.90
27779;DHT22;30234;48.090;11.464;2023-04-29T00:44:14;10.00;99.90
27779;DHT22;30234;48.090;11.464;2023-04-29T00:48:15;10.00;99.90
27779;DHT22;30234;48.090;11.464;2023-04-29T00:52:17;10.00;99.90
27779;DHT22;30234;48.090;11.464;2023-04-29T00:56:18;10.00;99.90
27779;DHT22;30234;48.090;11.464;2023-04-29T01:00:22;10.00;99.90
27779;DHT22;30234;48.090;11.464;2023-04-29T01:04:24;10.00;99.90
27779;DHT22;30234;48.090;11.464;2023-04-29T01:08:51;10.00;99.90
27779;DHT22;30234;48.090;11.464;2023-04-29T01:18:03;10.20;99.90
27779;DHT22;30234;48.090;11.464;2023-04-29T01:22:05;10.20;99.90
27779;DHT22;30234;48.090;11.464;2023-04-29T01:26:06;10.30;99.90
27779;DHT22;30234;48.090;11.464;2023-04-29T01:35:06;10.30;99.90
27779;DHT22;30234;48.090;11.464;2023-04-29T01:43:57;10.50;99.90
27779;DHT22;30234;48.090;11.464;2023-04-29T01:47:59;10.50;99.90
27779;DHT22;30234;48.090;11.464;2023-04-29T01:52:01;10.50;99.90
27779;DHT22;30234;48.090;11.464;2023-04-29T01:56:03;10.60;99.90
27779;DHT22;30234;48.090;11.464;2023-04-29T02:00:04;10.70;99.90
27779;DHT22;30234;48.090;11.464;2023-04-29T02:04:05;10.80;99.90
27779;DHT22;30234;48.090;11.464;2023-04-29T02:08:07;10.80;99.90
27779;DHT22;30234;48.090;11.464;2023-04-29T02:12:08;11.00;99.90
27779;DHT22;30234;48.090;11.464;2023-04-29T02:16:10;11.00;99.90
27779;DHT22;30234;48.090;11.464;2023-04-29T02:20:12;11.00;99.90
27779;DHT22;30234;48.090;11.464;2023-04-29T02:24:13;11.00;99.90
27779;DHT22;30234;48.090;11.464;2023-04-29T02:28:14;11.00;99.90
27779;DHT22;30234;48.090;11.464;2023-04-29T02:32:14;10.90;99.90
27779;DHT22;30234;48.090;11.464;2023-04-29T02:36:19;11.00;99.90
27779;DHT22;30234;48.090;11.464;2023-04-29T02:40:20;10.90;99.90
27779;DHT22;30234;48.090;11.464;2023-04-29T02:44:21;10.90;99.90
27779;DHT22;30234;48.090;11.464;2023-04-29T02:48:22;10.90;99.90
27779;DHT22;30234;48.090;11.464;2023-04-29T02:52:41;10.80;99.90
27779;DHT22;30234;48.090;11.464;2023-04-29T02:56:42;10.80;99.90
27779;DHT22;30234;48.090;11.464;2023-04-29T03:00:43;10.70;99.90
27779;DHT22;30234;48.090;11.464;2023-04-29T03:04:44;10.80;99.90
27779;DHT22;30234;48.090;11.464;2023-04-29T03:08:46;10.80;99.90
27779;DHT22;30234;48.090;11.464;2023-04-29T03:12:46;10.80;99.90
27779;DHT22;30234;48.090;11.464;2023-04-29T03:16:47;10.90;99.90
27779;DHT22;30234;48.090;11.464;2023-04-29T03:20:48;11.00;99.90
27779;DHT22;30234;48.090;11.464;2023-04-29T03:24:49;11.00;99.90
27779;DHT22;30234;48.090;11.464;2023-04-29T03:28:50;11.00;99.90
27779;DHT22;30234;48.090;11.464;2023-04-29T03:32:51;11.00;99.90
27779;DHT22;30234;48.090;11.464;2023-04-29T03:36:52;11.00;99.90
27779;DHT22;30234;48.090;11.464;2023-04-29T03:40:53;11.00;99.90
27779;DHT22;30234;48.090;11.464;2023-04-29T03:44:54;11.10;99.90
27779;DHT22;30234;48.090;11.464;2023-04-29T03:48:55;11.10;99.90
27779;DHT22;30234;48.090;11.464;2023-04-29T03:52:56;11.20;99.90
27779;DHT22;30234;48.090;11.464;2023-04-29T03:56:57;11.20;99.90
27779;DHT22;30234;48.090;11.464;2023-04-29T04:00:58;11.00;99.90
27779;DHT22;30234;48.090;11.464;2023-04-29T04:04:59;11.10;99.90
27779;DHT22;30234;48.090;11.464;2023-04-29T04:08:59;11.00;99.90
27779;DHT22;30234;48.090;11.464;2023-04-29T04:13:00;11.10;99.90
27779;DHT22;30234;48.090;11.464;2023-04-29T04:17:01;11.10;99.90
27779;DHT22;30234;48.090;11.464;2023-04-29T04:21:09;11.10;99.90
27779;DHT22;30234;48.090;11.464;2023-04-29T04:25:11;11.20;99.90
27779;DHT22;30234;48.090;11.464;2023-04-29T04:29:12;11.10;99.90
27779;DHT22;30234;48.090;11.464;2023-04-29T04:33:13;11.30;99.90
27779;DHT22;30234;48.090;11.464;2023-04-29T04:37:15;11.50;99.90
27779;DHT22;30234;48.090;11.464;2023-04-29T04:41:17;11.50;99.90
27779;DHT22;30234;48.090;11.464;2023-04-29T04:45:17;11.60;99.90
27779;DHT22;30234;48.090;11.464;2023-04-29T04:49:18;11.70;99.90
27779;DHT22;30234;48.090;11.464;2023-04-29T04:53:19;11.70;99.90
27779;DHT22;30234;48.090;11.464;2023-04-29T04:57:21;11.80;99.90
27779;DHT22;30234;48.090;11.464;2023-04-29T05:01:22;11.90;99.90
27779;DHT22;30234;48.090;11.464;2023-04-29T05:05:23;11.80;99.90
27779;DHT22;30234;48.090;11.464;2023-04-29T05:09:24;12.00;99.90
27779;DHT22;30234;48.090;11.464;2023-04-29T05:13:26;12.10;99.90
27779;DHT22;30234;48.090;11.464;2023-04-29T05:17:28;12.30;99.90
27779;DHT22;30234;48.090;11.464;2023-04-29T05:21:29;12.70;99.90
27779;DHT22;30234;48.090;11.464;2023-04-29T05:25:31;12.90;99.90
27779;DHT22;30234;48.090;11.464;2023-04-29T05:29:31;12.90;99.90
27779;DHT22;30234;48.090;11.464;2023-04-29T05:33:32;13.30;99.90
27779;DHT22;30234;48.090;11.464;2023-04-29T05:37:33;13.40;99.90
27779;DHT22;30234;48.090;11.464;2023-04-29T05:41:34;13.50;99.90
27779;DHT22;30234;48.090;11.464;2023-04-29T05:45:35;13.40;99.90
27779;DHT22;30234;48.090;11.464;2023-04-29T05:49:36;13.60;99.90
27779;DHT22;30234;48.090;11.464;2023-04-29T05:53:37;16.40;99.90
27779;DHT22;30234;48.090;11.464;2023-04-29T05:57:39;18.10;99.90
27779;DHT22;30234;48.090;11.464;2023-04-29T06:01:40;20.30;99.90
27779;DHT22;30234;48.090;11.464;2023-04-29T06:05:40;23.80;99.90
27779;DHT22;30234;48.090;11.464;2023-04-29T06:09:41;22.80;99.90
27779;DHT22;30234;48.090;11.464;2023-04-29T06:13:43;19.60;99.90
27779;DHT22;30234;48.090;11.464;2023-04-29T06:17:44;19.60;99.90
27779;DHT22;30234;48.090;11.464;2023-04-29T06:21:45;20.80;99.90
27779;DHT22;30234;48.090;11.464;2023-04-29T06:25:45;22.10;99.90
27779;DHT22;30234;48.090;11.464;2023-04-29T06:29:46;23.10;99.90
27779;DHT22;30234;48.090;11.464;2023-04-29T06:33:47;22.70;99.90
27779;DHT22;30234;48.090;11.464;2023-04-29T06:37:48;22.90;99.90
27779;DHT22;30234;48.090;11.464;2023-04-29T06:41:49;22.00;99.90
27779;DHT22;30234;48.090;11.464;2023-04-29T06:45:51;20.80;99.90
27779;DHT22;30234;48.090;11.464;2023-04-29T06:49:52;18.70;99.90
27779;DHT22;30234;48.090;11.464;2023-04-29T06:53:53;17.60;99.90
27779;DHT22;30234;48.090;11.464;2023-04-29T06:57:54;16.80;99.90
27779;DHT22;30234;48.090;11.464;2023-04-29T07:01:55;16.30;99.90
27779;DHT22;30234;48.090;11.464;2023-04-29T07:05:56;16.20;99.90
27779;DHT22;30234;48.090;11.464;2023-04-29T07:09:57;15.90;99.90
27779;DHT22;30234;48.090;11.464;2023-04-29T07:13:58;15.90;99.90
27779;DHT22;30234;48.090;11.464;2023-04-29T07:17:59;16.60;99.90
27779;DHT22;30234;48.090;11.464;2023-04-29T07:22:00;17.70;99.90
27779;DHT22;30234;48.090;11.464;2023-04-29T07:26:14;21.80;99.90
27779;DHT22;30234;48.090;11.464;2023-04-29T07:30:16;24.80;99.90
27779;DHT22;30234;48.090;11.464;2023-04-29T07:34:16;24.60;99.90
27779;DHT22;30234;48.090;11.464;2023-04-29T07:38:17;24.60;99.90
27779;DHT22;30234;48.090;11.464;2023-04-29T07:42:18;25.10;99.90
27779;DHT22;30234;48.090;11.464;2023-04-29T07:46:19;23.80;99.90
27779;DHT22;30234;48.090;11.464;2023-04-29T07:50:20;23.00;99.90
27779;DHT22;30234;48.090;11.464;2023-04-29T07:54:22;22.80;99.90
27779;DHT22;30234;48.090;11.464;2023-04-29T07:58:23;21.50;99.90
27779;DHT22;30234;48.090;11.464;2023-04-29T08:02:24;24.20;99.90
27779;DHT22;30234;48.090;11.464;2023-04-29T08:06:25;26.30;98.20
27779;DHT22;30234;48.090;11.464;2023-04-29T08:10:26;22.40;99.90
27779;DHT22;30234;48.090;11.464;2023-04-29T08:14:27;20.70;99.90
27779;DHT22;30234;48.090;11.464;2023-04-29T08:18:28;23.20;99.90
27779;DHT22;30234;48.090;11.464;2023-04-29T08:22:29;22.10;99.90
27779;DHT22;30234;48.090;11.464;2023-04-29T08:26:30;23.10;99.90
27779;DHT22;30234;48.090;11.464;2023-04-29T08:30:31;22.30;99.90
27779;DHT22;30234;48.090;11.464;2023-04-29T08:34:33;21.10;99.90
27779;DHT22;30234;48.090;11.464;2023-04-29T08:38:35;20.10;99.90
27779;DHT22;30234;48.090;11.464;2023-04-29T08:42:36;19.00;99.90
27779;DHT22;30234;48.090;11.464;2023-04-29T08:46:38;19.30;99.90
27779;DHT22;30234;48.090;11.464;2023-04-29T08:50:40;20.00;99.90
27779;DHT22;30234;48.090;11.464;2023-04-29T08:58:44;19.40;99.90
27779;DHT22;30234;48.090;11.464;2023-04-29T09:02:52;20.20;99.90
27779;DHT22;30234;48.090;11.464;2023-04-29T09:06:55;22.00;99.90
27779;DHT22;30234;48.090;11.464;2023-04-29T09:10:57;23.40;99.90
27779;DHT22;30234;48.090;11.464;2023-04-29T09:15:02;21.40;99.90
27779;DHT22;30234;48.090;11.464;2023-04-29T09:19:04;19.70;99.90
27779;DHT22;30234;48.090;11.464;2023-04-29T09:23:05;18.30;99.90
27779;DHT22;30234;48.090;11.464;2023-04-29T09:27:05;20.40;99.90
27779;DHT22;30234;48.090;11.464;2023-04-29T09:31:09;23.60;99.90
27779;DHT22;30234;48.090;11.464;2023-04-29T09:35:24;25.20;95.20
27779;DHT22;30234;48.090;11.464;2023-04-29T09:39:26;24.90;92.90
27779;DHT22;30234;48.090;11.464;2023-04-29T09:43:37;25.50;92.10
27779;DHT22;30234;48.090;11.464;2023-04-29T09:47:38;26.20;91.10
27779;DHT22;30234;48.090;11.464;2023-04-29T09:51:51;25.80;89.10
27779;DHT22;30234;48.090;11.464;2023-04-29T09:56:02;23.80;93.20
27779;DHT22;30234;48.090;11.464;2023-04-29T10:00:04;25.70;93.10
27779;DHT22;30234;48.090;11.464;2023-04-29T10:04:05;25.40;90.90
27779;DHT22;30234;48.090;11.464;2023-04-29T10:08:08;24.00;90.20
27779;DHT22;30234;48.090;11.464;2023-04-29T10:12:09;22.30;91.90
27779;DHT22;30234;48.090;11.464;2023-04-29T10:16:31;21.10;93.90
27779;DHT22;30234;48.090;11.464;2023-04-29T10:20:36;20.00;96.20
27779;DHT22;30234;48.090;11.464;2023-04-29T10:24:40;19.10;98.20
27779;DHT22;30234;48.090;11.464;2023-04-29T10:28:43;18.40;99.90
27779;DHT22;30234;48.090;11.464;2023-04-29T10:32:46;19.10;99.90
27779;DHT22;30234;48.090;11.464;2023-04-29T10:36:49;22.80;95.80
27779;DHT22;30234;48.090;11.464;2023-04-29T10:40:50;23.60;94.40
27779;DHT22;30234;48.090;11.464;2023-04-29T10:49:33;20.90;97.60
27779;DHT22;30234;48.090;11.464;2023-04-29T10:53:34;19.70;99.80
27779;DHT22;30234;48.090;11.464;2023-04-29T10:57:35;20.50;99.90
27779;DHT22;30234;48.090;11.464;2023-04-29T11:01:42;20.70;99.10
27779;DHT22;30234;48.090;11.464;2023-04-29T11:05:44;19.80;99.30
27779;DHT22;30234;48.090;11.464;2023-04-29T11:09:50;18.70;99.90
27779;DHT22;30234;48.090;11.464;2023-04-29T11:13:51;18.20;99.90
27779;DHT22;30234;48.090;11.464;2023-04-29T11:17:52;18.30;99.90
27779;DHT22;30234;48.090;11.464;2023-04-29T11:22:08;19.60;99.90
27779;DHT22;30234;48.090;11.464;2023-04-29T11:26:13;19.60;99.90
27779;DHT22;30234;48.090;11.464;2023-04-29T11:30:14;19.50;99.90
27779;DHT22;30234;48.090;11.464;2023-04-29T11:34:16;19.50;99.90
27779;DHT22;30234;48.090;11.464;2023-04-29T11:38:17;20.90;99.40
27779;DHT22;30234;48.090;11.464;2023-04-29T11:42:21;22.40;96.60
27779;DHT22;30234;48.090;11.464;2023-04-29T11:46:22;21.30;97.10
27779;DHT22;30234;48.090;11.464;2023-04-29T11:50:23;21.20;97.50
27779;DHT22;30234;48.090;11.464;2023-04-29T11:54:28;22.50;94.30
27779;DHT22;30234;48.090;11.464;2023-04-29T11:58:29;23.40;92.20
27779;DHT22;30234;48.090;11.464;2023-04-29T12:02:31;22.40;92.40
27779;DHT22;30234;48.090;11.464;2023-04-29T12:06:32;23.00;91.50
27779;DHT22;30234;48.090;11.464;2023-04-29T12:10:36;22.40;90.70
27779;DHT22;30234;48.090;11.464;2023-04-29T12:14:37;21.40;91.40
27779;DHT22;30234;48.090;11.464;2023-04-29T12:18:38;21.40;92.20
27779;DHT22;30234;48.090;11.464;2023-04-29T12:22:40;21.30;92.60
27779;DHT22;30234;48.090;11.464;2023-04-29T12:26:44;21.30;92.00
27779;DHT22;30234;48.090;11.464;2023-04-29T12:30:50;21.60;90.90
27779;DHT22;30234;48.090;11.464;2023-04-29T12:34:54;21.00;91.90
27779;DHT22;30234;48.090;11.464;2023-04-29T12:38:55;20.60;92.50
27779;DHT22;30234;48.090;11.464;2023-04-29T12:42:56;21.20;92.00
27779;DHT22;30234;48.090;11.464;2023-04-29T12:47:08;22.70;87.60
27779;DHT22;30234;48.090;11.464;2023-04-29T12:51:10;23.00;84.00
27779;DHT22;30234;48.090;11.464;2023-04-29T12:55:11;22.80;85.40
27779;DHT22;30234;48.090;11.464;2023-04-29T12:59:12;21.10;89.50
27779;DHT22;30234;48.090;11.464;2023-04-29T13:03:13;21.70;90.00
27779;DHT22;30234;48.090;11.464;2023-04-29T13:07:14;22.50;87.50
27779;DHT22;30234;48.090;11.464;2023-04-29T13:11:15;23.40;84.50
27779;DHT22;30234;48.090;11.464;2023-04-29T13:15:16;23.10;83.00
27779;DHT22;30234;48.090;11.464;2023-04-29T13:19:17;22.30;83.30
27779;DHT22;30234;48.090;11.464;2023-04-29T13:23:18;22.30;84.70
27779;DHT22;30234;48.090;11.464;2023-04-29T13:27:19;22.40;84.70
27779;DHT22;30234;48.090;11.464;2023-04-29T13:31:20;23.70;82.60
27779;DHT22;30234;48.090;11.464;2023-04-29T13:35:21;23.70;78.90
27779;DHT22;30234;48.090;11.464;2023-04-29T13:39:21;23.30;78.60
27779;DHT22;30234;48.090;11.464;2023-04-29T13:43:22;23.70;77.60
27779;DHT22;30234;48.090;11.464;2023-04-29T13:47:24;23.60;75.50
27779;DHT22;30234;48.090;11.464;2023-04-29T13:51:25;23.60;79.40
27779;DHT22;30234;48.090;11.464;2023-04-29T13:55:26;23.70;75.80
27779;DHT22;30234;48.090;11.464;2023-04-29T13:59:28;23.80;75.20
27779;DHT22;30234;48.090;11.464;2023-04-29T14:03:30;24.00;73.80
27779;DHT22;30234;48.090;11.464;2023-04-29T14:07:31;24.20;73.10
27779;DHT22;30234;48.090;11.464;2023-04-29T14:11:32;23.90;71.80
27779;DHT22;30234;48.090;11.464;2023-04-29T14:15:39;24.30;72.90
27779;DHT22;30234;48.090;11.464;2023-04-29T14:19:41;24.00;71.40
27779;DHT22;30234;48.090;11.464;2023-04-29T14:23:42;24.00;71.80
27779;DHT22;30234;48.090;11.464;2023-04-29T14:27:43;23.10;73.10
27779;DHT22;30234;48.090;11.464;2023-04-29T14:31:43;22.60;74.30
27779;DHT22;30234;48.090;11.464;2023-04-29T14:35:44;22.50;74.30
27779;DHT22;30234;48.090;11.464;2023-04-29T14:39:45;23.00;75.30
27779;DHT22;30234;48.090;11.464;2023-04-29T14:43:46;23.80;72.00
27779;DHT22;30234;48.090;11.464;2023-04-29T14:47:47;24.10;72.20
27779;DHT22;30234;48.090;11.464;2023-04-29T14:51:48;23.70;72.10
27779;DHT22;30234;48.090;11.464;2023-04-29T14:55:51;23.10;72.60
27779;DHT22;30234;48.090;11.464;2023-04-29T14:59:52;23.10;73.90
27779;DHT22;30234;48.090;11.464;2023-04-29T15:03:53;22.20;75.60
27779;DHT22;30234;48.090;11.464;2023-04-29T15:07:54;22.10;75.60
27779;DHT22;30234;48.090;11.464;2023-04-29T15:11:56;21.10;77.00
27779;DHT22;30234;48.090;11.464;2023-04-29T15:15:57;20.00;81.70
27779;DHT22;30234;48.090;11.464;2023-04-29T15:19:58;21.20;79.70
27779;DHT22;30234;48.090;11.464;2023-04-29T15:24:00;21.40;78.20
27779;DHT22;30234;48.090;11.464;2023-04-29T15:28:02;20.60;80.70
27779;DHT22;30234;48.090;11.464;2023-04-29T15:32:04;19.20;83.80
27779;DHT22;30234;48.090;11.464;2023-04-29T15:36:05;18.60;86.00
27779;DHT22;30234;48.090;11.464;2023-04-29T15:40:07;18.40;88.10
27779;DHT22;30234;48.090;11.464;2023-04-29T15:44:08;18.20;87.80
27779;DHT22;30234;48.090;11.464;2023-04-29T15:48:09;18.40;88.50
27779;DHT22;30234;48.090;11.464;2023-04-29T15:52:10;17.70;90.10
27779;DHT22;30234;48.090;11.464;2023-04-29T15:56:11;17.50;90.70
27779;DHT22;30234;48.090;11.464;2023-04-29T16:00:12;17.70;91.30
27779;DHT22;30234;48.090;11.464;2023-04-29T16:04:13;19.00;90.30
27779;DHT22;30234;48.090;11.464;2023-04-29T16:08:16;18.80;90.50
27779;DHT22;30234;48.090;11.464;2023-04-29T16:12:16;18.40;91.80
27779;DHT22;30234;48.090;11.464;2023-04-29T16:16:17;17.40;93.10
27779;DHT22;30234;48.090;11.464;2023-04-29T16:20:18;17.00;94.30
27779;DHT22;30234;48.090;11.464;2023-04-29T16:24:20;17.20;95.10
27779;DHT22;30234;48.090;11.464;2023-04-29T16:28:21;16.70;95.40
27779;DHT22;30234;48.090;11.464;2023-04-29T16:32:22;16.80;95.10
27779;DHT22;30234;48.090;11.464;2023-04-29T16:36:23;16.60;95.40
27779;DHT22;30234;48.090;11.464;2023-04-29T16:40:25;17.20;95.00
27779;DHT22;30234;48.090;11.464;2023-04-29T16:44:27;17.60;93.10
27779;DHT22;30234;48.090;11.464;2023-04-29T16:48:29;17.60;93.00
27779;DHT22;30234;48.090;11.464;2023-04-29T16:52:30;17.20;93.50
27779;DHT22;30234;48.090;11.464;2023-04-29T16:56:31;17.40;94.80
27779;DHT22;30234;48.090;11.464;2023-04-29T17:00:32;17.10;93.80
27779;DHT22;30234;48.090;11.464;2023-04-29T17:04:33;16.80;94.80
27779;DHT22;30234;48.090;11.464;2023-04-29T17:08:34;16.40;96.00
27779;DHT22;30234;48.090;11.464;2023-04-29T17:12:35;15.80;97.70
27779;DHT22;30234;48.090;11.464;2023-04-29T17:16:36;15.60;98.90
27779;DHT22;30234;48.090;11.464;2023-04-29T17:20:37;15.40;99.30
27779;DHT22;30234;48.090;11.464;2023-04-29T17:24:39;15.40;99.90
27779;DHT22;30234;48.090;11.464;2023-04-29T17:28:41;15.30;99.90
27779;DHT22;30234;48.090;11.464;2023-04-29T17:32:42;15.20;99.90
27779;DHT22;30234;48.090;11.464;2023-04-29T17:36:46;15.10;99.90
27779;DHT22;30234;48.090;11.464;2023-04-29T17:40:47;15.10;99.90
27779;DHT22;30234;48.090;11.464;2023-04-29T17:44:49;15.00;99.90
27779;DHT22;30234;48.090;11.464;2023-04-29T17:48:50;14.80;99.90
27779;DHT22;30234;48.090;11.464;2023-04-29T17:52:51;14.80;99.90
27779;DHT22;30234;48.090;11.464;2023-04-29T17:56:52;14.40;99.90
27779;DHT22;30234;48.090;11.464;2023-04-29T18:00:53;14.30;99.90
27779;DHT22;30234;48.090;11.464;2023-04-29T18:04:56;14.10;99.90
27779;DHT22;30234;48.090;11.464;2023-04-29T18:08:57;14.00;99.90
27779;DHT22;30234;48.090;11.464;2023-04-29T18:12:58;14.00;99.90
27779;DHT22;30234;48.090;11.464;2023-04-29T18:16:59;13.90;99.90
27779;DHT22;30234;48.090;11.464;2023-04-29T18:21:01;13.80;99.90
27779;DHT22;30234;48.090;11.464;2023-04-29T18:25:02;13.70;99.90
27779;DHT22;30234;48.090;11.464;2023-04-29T18:29:03;13.70;99.90
27779;DHT22;30234;48.090;11.464;2023-04-29T18:33:04;13.50;99.90
27779;DHT22;30234;48.090;11.464;2023-04-29T18:37:05;13.50;99.90
27779;DHT22;30234;48.090;11.464;2023-04-29T18:41:06;13.40;99.90
27779;DHT22;30234;48.090;11.464;2023-04-29T18:45:08;13.40;99.90
27779;DHT22;30234;48.090;11.464;2023-04-29T18:49:09;13.30;99.90
27779;DHT22;30234;48.090;11.464;2023-04-29T18:53:15;13.40;99.90
27779;DHT22;30234;48.090;11.464;2023-04-29T18:57:16;13.40;99.90
27779;DHT22;30234;48.090;11.464;2023-04-29T19:01:18;13.20;99.90
27779;DHT22;30234;48.090;11.464;2023-04-29T19:05:19;13.30;99.90
27779;DHT22;30234;48.090;11.464;2023-04-29T19:09:21;13.40;99.90
27779;DHT22;30234;48.090;11.464;2023-04-29T19:13:22;13.30;99.90
27779;DHT22;30234;48.090;11.464;2023-04-29T19:17:23;13.40;99.90
27779;DHT22;30234;48.090;11.464;2023-04-29T19:21:24;13.20;99.90
27779;DHT22;30234;48.090;11.464;2023-04-29T19:25:25;13.10;99.90
27779;DHT22;30234;48.090;11.464;2023-04-29T19:29:26;12.90;99.90
27779;DHT22;30234;48.090;11.464;2023-04-29T19:33:27;12.70;99.90
27779;DHT22;30234;48.090;11.464;2023-04-29T19:37:28;12.60;99.90
27779;DHT22;30234;48.090;11.464;2023-04-29T19:41:29;12.60;99.90
27779;DHT22;30234;48.090;11.464;2023-04-29T19:45:31;12.60;99.90
27779;DHT22;30234;48.090;11.464;2023-04-29T19:49:32;12.70;99.90
27779;DHT22;30234;48.090;11.464;2023-04-29T19:53:35;12.60;99.90
27779;DHT22;30234;48.090;11.464;2023-04-29T19:57:36;12.60;99.90
27779;DHT22;30234;48.090;11.464;2023-04-29T20:01:38;12.60;99.90
27779;DHT22;30234;48.090;11.464;2023-04-29T20:05:39;12.50;99.90
27779;DHT22;30234;48.090;11.464;2023-04-29T20:09:40;14.10;99.90
27779;DHT22;30234;48.090;11.464;2023-04-29T20:13:42;12.50;99.90
27779;DHT22;30234;48.090;11.464;2023-04-29T20:17:44;12.30;99.90
27779;DHT22;30234;48.090;11.464;2023-04-29T20:21:45;12.20;99.90
27779;DHT22;30234;48.090;11.464;2023-04-29T20:25:46;12.20;99.90
27779;DHT22;30234;48.090;11.464;2023-04-29T20:29:47;12.40;99.90
27779;DHT22;30234;48.090;11.464;2023-04-29T20:33:48;12.20;99.90
27779;DHT22;30234;48.090;11.464;2023-04-29T20:37:49;12.10;99.90
27779;DHT22;30234;48.090;11.464;2023-04-29T20:41:50;12.10;99.90
27779;DHT22;30234;48.090;11.464;2023-04-29T20:45:51;12.60;99.90
27779;DHT22;30234;48.090;11.464;2023-04-29T20:49:52;11.90;99.90
27779;DHT22;30234;48.090;11.464;2023-04-29T20:53:53;11.90;99.90
27779;DHT22;30234;48.090;11.464;2023-04-29T20:57:54;11.70;99.90
27779;DHT22;30234;48.090;11.464;2023-04-29T21:01:55;12.50;99.90
27779;DHT22;30234;48.090;11.464;2023-04-29T21:05:56;11.60;99.90
27779;DHT22;30234;48.090;11.464;2023-04-29T21:09:57;11.70;99.90
27779;DHT22;30234;48.090;11.464;2023-04-29T21:13:57;11.50;99.90
27779;DHT22;30234;48.090;11.464;2023-04-29T21:17:58;11.50;99.90
27779;DHT22;30234;48.090;11.464;2023-04-29T21:21:59;11.50;99.90
27779;DHT22;30234;48.090;11.464;2023-04-29T21:26:00;11.40;99.90
27779;DHT22;30234;48.090;11.464;2023-04-29T21:30:02;11.60;99.90
27779;DHT22;30234;48.090;11.464;2023-04-29T21:34:04;11.30;99.90
27779;DHT22;30234;48.090;11.464;2023-04-29T21:38:05;11.20;99.90
27779;DHT22;30234;48.090;11.464;2023-04-29T21:42:07;11.10;99.90
27779;DHT22;30234;48.090;11.464;2023-04-29T21:46:08;10.80;99.90
27779;DHT22;30234;48.090;11.464;2023-04-29T21:50:09;11.00;99.90
27779;DHT22;30234;48.090;11.464;2023-04-29T21:54:11;10.40;99.90
27779;DHT22;30234;48.090;11.464;2023-04-29T21:58:11;10.60;99.90
27779;DHT22;30234;48.090;11.464;2023-04-29T22:02:12;10.70;99.90
27779;DHT22;30234;48.090;11.464;2023-04-29T22:06:21;10.70;99.90
27779;DHT22;30234;48.090;11.464;2023-04-29T22:10:23;10.70;99.90
27779;DHT22;30234;48.090;11.464;2023-04-29T22:14:24;10.80;99.90
27779;DHT22;30234;48.090;11.464;2023-04-29T22:18:25;10.90;99.90
27779;DHT22;30234;48.090;11.464;2023-04-29T22:22:26;11.00;99.90
27779;DHT22;30234;48.090;11.464;2023-04-29T22:26:27;11.10;99.90
27779;DHT22;30234;48.090;11.464;2023-04-29T22:30:28;11.50;99.90
27779;DHT22;30234;48.090;11.464;2023-04-29T22:34:29;11.30;99.90
27779;DHT22;30234;48.090;11.464;2023-04-29T22:38:30;11.30;99.90
27779;DHT22;30234;48.090;11.464;2023-04-29T22:42:33;11.40;99.90
27779;DHT22;30234;48.090;11.464;2023-04-29T22:46:34;11.10;99.90
27779;DHT22;30234;48.090;11.464;2023-04-29T22:50:35;11.20;99.90
27779;DHT22;30234;48.090;11.464;2023-04-29T22:54:36;11.50;99.90
27779;DHT22;30234;48.090;11.464;2023-04-29T22:58:37;11.10;99.90
27779;DHT22;30234;48.090;11.464;2023-04-29T23:02:38;11.10;99.90
27779;DHT22;30234;48.090;11.464;2023-04-29T23:06:40;10.90;99.90
27779;DHT22;30234;48.090;11.464;2023-04-29T23:10:46;10.70;99.90
27779;DHT22;30234;48.090;11.464;2023-04-29T23:14:48;10.70;99.90
27779;DHT22;30234;48.090;11.464;2023-04-29T23:18:50;10.60;99.90
27779;DHT22;30234;48.090;11.464;2023-04-29T23:22:51;10.80;99.90
27779;DHT22;30234;48.090;11.464;2023-04-29T23:26:52;10.70;99.90
27779;DHT22;30234;48.090;11.464;2023-04-29T23:30:53;11.20;99.90
27779;DHT22;30234;48.090;11.464;2023-04-29T23:34:54;10.60;99.90
27779;DHT22;30234;48.090;11.464;2023-04-29T23:38:55;10.60;99.90
27779;DHT22;30234;48.090;11.464;2023-04-29T23:42:56;10.60;99.90
27779;DHT22;30234;48.090;11.464;2023-04-29T23:46:57;10.70;99.90
27779;DHT22;30234;48.090;11.464;2023-04-29T23:50:58;10.70;99.90
27779;DHT22;30234;48.090;11.464;2023-04-29T23:54:58;10.50;99.90
27779;DHT22;30234;48.090;11.464;2023-04-29T23:58:59;10.40;99.90
